sensor_id;sensor_type;location;lat;lon;timestamp;temperature;humidity
21551;DHT22;10936;49.836;7.078;2022-12-07T06:00:25;18.00;94.80
21551;DHT22;10936;49.836;7.078;2022-12-07T06:02:51;18.00;94.80
21551;DHT22;10936;49.836;7.078;2022-12-07T06:05:16;18.00;94.80
21551;DHT22;10936;49.836;7.078;2022-12-07T06:07:42;18.00;94.80
21551;DHT22;10936;49.836;7.078;2022-12-07T06:10:08;18.00;94.80
21551;DHT22;10936;49.836;7.078;2022-12-07T06:12:33;17.90;94.80
21551;DHT22;10936;49.836;7.078;2022-12-07T06:14:59;18.00;94.80
21551;DHT22;10936;49.836;7.078;2022-12-07T06:17:25;18.00;94.80
21551;DHT22;10936;49.836;7.078;2022-12-07T06:19:50;17.90;94.80
21551;DHT22;10936;49.836;7.078;2022-12-07T06:22:17;18.00;94.80
21551;DHT22;10936;49.836;7.078;2022-12-07T06:24:43;17.90;94.80
21551;DHT22;10936;49.836;7.078;2022-12-07T06:27:09;18.00;94.80
21551;DHT22;10936;49.836;7.078;2022-12-07T06:29:35;18.00;94.80
21551;DHT22;10936;49.836;7.078;2022-12-07T06:32:01;18.00;94.80
21551;DHT22;10936;49.836;7.078;2022-12-07T06:34:27;18.00;94.90
21551;DHT22;10936;49.836;7.078;2022-12-07T06:36:53;18.00;94.90
21551;DHT22;10936;49.836;7.078;2022-12-07T06:39:22;18.00;94.80
21551;DHT22;10936;49.836;7.078;2022-12-07T06:41:49;18.00;94.80
21551;DHT22;10936;49.836;7.078;2022-12-07T06:44:17;18.00;94.80
21551;DHT22;10936;49.836;7.078;2022-12-07T06:46:42;18.00;94.80
21551;DHT22;10936;49.836;7.078;2022-12-07T06:49:08;18.00;94.80
21551;DHT22;10936;49.836;7.078;2022-12-07T06:51:34;18.00;94.80
21551;DHT22;10936;49.836;7.078;2022-12-07T06:54:06;18.00;94.80
21551;DHT22;10936;49.836;7.078;2022-12-07T06:56:32;18.00;94.80
21551;DHT22;10936;49.836;7.078;2022-12-07T06:58:58;18.00;94.80
21551;DHT22;10936;49.836;7.078;2022-12-07T07:01:23;18.00;94.80
21551;DHT22;10936;49.836;7.078;2022-12-07T07:03:49;18.00;94.80
21551;DHT22;10936;49.836;7.078;2022-12-07T07:06:14;18.00;94.80
21551;DHT22;10936;49.836;7.078;2022-12-07T07:08:41;18.00;94.80
21551;DHT22;10936;49.836;7.078;2022-12-07T07:11:07;18.00;94.80
21551;DHT22;10936;49.836;7.078;2022-12-07T07:13:33;18.00;94.80
21551;DHT22;10936;49.836;7.078;2022-12-07T07:16:00;18.00;94.80
21551;DHT22;10936;49.836;7.078;2022-12-07T07:18:25;18.00;94.80
21551;DHT22;10936;49.836;7.078;2022-12-07T07:20:52;18.00;94.80
21551;DHT22;10936;49.836;7.078;2022-12-07T07:23:18;18.00;94.80
21551;DHT22;10936;49.836;7.078;2022-12-07T07:25:44;18.00;94.70
21551;DHT22;10936;49.836;7.078;2022-12-07T07:28:10;18.00;94.70
21551;DHT22;10936;49.836;7.078;2022-12-07T07:30:36;18.00;94.70
21551;DHT22;10936;49.836;7.078;2022-12-07T07:33:02;18.00;94.80
21551;DHT22;10936;49.836;7.078;2022-12-07T07:35:30;18.00;94.80
21551;DHT22;10936;49.836;7.078;2022-12-07T07:37:56;18.00;94.70
21551;DHT22;10936;49.836;7.078;2022-12-07T07:40:22;18.00;94.70
21551;DHT22;10936;49.836;7.078;2022-12-07T07:42:49;18.00;94.70
21551;DHT22;10936;49.836;7.078;2022-12-07T07:45:15;18.00;94.70
21551;DHT22;10936;49.836;7.078;2022-12-07T07:47:41;18.00;94.70
21551;DHT22;10936;49.836;7.078;2022-12-07T07:50:06;18.00;94.70
21551;DHT22;10936;49.836;7.078;2022-12-07T07:52:32;18.00;94.70
21551;DHT22;10936;49.836;7.078;2022-12-07T07:54:58;18.00;94.70
21551;DHT22;10936;49.836;7.078;2022-12-07T07:57:23;18.00;94.70
21551;DHT22;10936;49.836;7.078;2022-12-07T07:59:49;18.00;94.70
21551;DHT22;10936;49.836;7.078;2022-12-07T08:02:16;18.00;94.70
21551;DHT22;10936;49.836;7.078;2022-12-07T08:04:43;18.00;94.70
21551;DHT22;10936;49.836;7.078;2022-12-07T08:07:09;18.00;94.70
21551;DHT22;10936;49.836;7.078;2022-12-07T08:09:35;18.00;94.70
21551;DHT22;10936;49.836;7.078;2022-12-07T08:12:00;18.00;94.70
21551;DHT22;10936;49.836;7.078;2022-12-07T08:14:26;18.00;94.70
21551;DHT22;10936;49.836;7.078;2022-12-07T08:16:53;18.00;94.70
21551;DHT22;10936;49.836;7.078;2022-12-07T08:19:18;18.00;94.70
21551;DHT22;10936;49.836;7.078;2022-12-07T08:21:44;18.00;94.80
21551;DHT22;10936;49.836;7.078;2022-12-07T08:24:09;18.00;94.80
21551;DHT22;10936;49.836;7.078;2022-12-07T08:26:35;18.00;94.80
21551;DHT22;10936;49.836;7.078;2022-12-07T08:29:01;18.00;94.80
21551;DHT22;10936;49.836;7.078;2022-12-07T08:31:26;18.00;94.80
21551;DHT22;10936;49.836;7.078;2022-12-07T08:33:53;18.00;94.80
21551;DHT22;10936;49.836;7.078;2022-12-07T08:36:18;18.00;94.80
21551;DHT22;10936;49.836;7.078;2022-12-07T08:38:44;18.00;94.80
21551;DHT22;10936;49.836;7.078;2022-12-07T08:41:10;18.00;94.80
21551;DHT22;10936;49.836;7.078;2022-12-07T08:43:36;18.00;94.80
21551;DHT22;10936;49.836;7.078;2022-12-07T08:46:12;18.00;94.80
21551;DHT22;10936;49.836;7.078;2022-12-07T08:48:43;18.00;94.80
21551;DHT22;10936;49.836;7.078;2022-12-07T08:51:10;18.00;94.80
21551;DHT22;10936;49.836;7.078;2022-12-07T08:53:38;18.00;94.80
21551;DHT22;10936;49.836;7.078;2022-12-07T08:56:05;18.00;94.80
21551;DHT22;10936;49.836;7.078;2022-12-07T08:58:33;18.00;94.80
21551;DHT22;10936;49.836;7.078;2022-12-07T09:00:59;18.00;94.80
21551;DHT22;10936;49.836;7.078;2022-12-07T09:03:25;18.00;94.80
21551;DHT22;10936;49.836;7.078;2022-12-07T09:05:50;18.10;94.80
21551;DHT22;10936;49.836;7.078;2022-12-07T09:08:17;18.00;94.80
21551;DHT22;10936;49.836;7.078;2022-12-07T09:10:43;18.00;94.80
21551;DHT22;10936;49.836;7.078;2022-12-07T09:13:08;18.00;94.80
21551;DHT22;10936;49.836;7.078;2022-12-07T09:15:34;18.00;94.70
21551;DHT22;10936;49.836;7.078;2022-12-07T09:17:59;18.00;94.70
21551;DHT22;10936;49.836;7.078;2022-12-07T09:20:25;18.00;94.70
21551;DHT22;10936;49.836;7.078;2022-12-07T09:22:50;18.00;94.80
21551;DHT22;10936;49.836;7.078;2022-12-07T09:25:16;18.00;94.70
21551;DHT22;10936;49.836;7.078;2022-12-07T09:27:42;18.00;94.70
21551;DHT22;10936;49.836;7.078;2022-12-07T09:30:07;18.00;94.70
21551;DHT22;10936;49.836;7.078;2022-12-07T09:32:33;18.00;94.70
21551;DHT22;10936;49.836;7.078;2022-12-07T09:34:59;18.00;94.70
21551;DHT22;10936;49.836;7.078;2022-12-07T09:37:24;18.00;94.70
21551;DHT22;10936;49.836;7.078;2022-12-07T09:39:50;18.00;94.70
21551;DHT22;10936;49.836;7.078;2022-12-07T09:42:35;18.00;94.70
21551;DHT22;10936;49.836;7.078;2022-12-07T09:45:02;18.00;94.70
21551;DHT22;10936;49.836;7.078;2022-12-07T09:47:30;18.00;94.70
21551;DHT22;10936;49.836;7.078;2022-12-07T09:50:03;18.00;94.70
21551;DHT22;10936;49.836;7.078;2022-12-07T09:52:30;18.00;94.70
21551;DHT22;10936;49.836;7.078;2022-12-07T09:54:55;18.00;94.70
21551;DHT22;10936;49.836;7.078;2022-12-07T09:57:28;18.00;94.60
21551;DHT22;10936;49.836;7.078;2022-12-07T10:00:00;18.00;94.70
21551;DHT22;10936;49.836;7.078;2022-12-07T10:02:58;18.00;94.70
21551;DHT22;10936;49.836;7.078;2022-12-07T10:05:36;18.00;94.70
21551;DHT22;10936;49.836;7.078;2022-12-07T10:08:03;18.00;94.70
21551;DHT22;10936;49.836;7.078;2022-12-07T10:10:34;18.10;94.70
21551;DHT22;10936;49.836;7.078;2022-12-07T10:13:02;18.00;94.60
21551;DHT22;10936;49.836;7.078;2022-12-07T10:18:31;18.00;94.70
21551;DHT22;10936;49.836;7.078;2022-12-07T10:23:58;18.00;94.70
21551;DHT22;10936;49.836;7.078;2022-12-07T10:26:41;18.00;94.70
21551;DHT22;10936;49.836;7.078;2022-12-07T10:29:20;18.00;94.60
21551;DHT22;10936;49.836;7.078;2022-12-07T10:31:52;18.00;94.60
21551;DHT22;10936;49.836;7.078;2022-12-07T10:34:23;18.00;94.60
21551;DHT22;10936;49.836;7.078;2022-12-07T10:36:50;18.00;94.70
21551;DHT22;10936;49.836;7.078;2022-12-07T10:39:20;18.00;94.60
21551;DHT22;10936;49.836;7.078;2022-12-07T10:42:03;18.10;94.70
21551;DHT22;10936;49.836;7.078;2022-12-07T10:44:33;18.00;94.60
21551;DHT22;10936;49.836;7.078;2022-12-07T10:50:17;18.10;94.70
21551;DHT22;10936;49.836;7.078;2022-12-07T10:55:26;18.10;94.60
21551;DHT22;10936;49.836;7.078;2022-12-07T11:03:36;18.00;94.60
21551;DHT22;10936;49.836;7.078;2022-12-07T11:06:14;18.10;94.60
21551;DHT22;10936;49.836;7.078;2022-12-07T11:08:57;18.10;94.60
21551;DHT22;10936;49.836;7.078;2022-12-07T11:14:22;18.10;94.60
21551;DHT22;10936;49.836;7.078;2022-12-07T11:17:00;18.10;94.60
21551;DHT22;10936;49.836;7.078;2022-12-07T11:22:22;18.00;94.60
21551;DHT22;10936;49.836;7.078;2022-12-07T11:27:35;18.10;94.60
21551;DHT22;10936;49.836;7.078;2022-12-07T11:37:57;18.00;94.60
21551;DHT22;10936;49.836;7.078;2022-12-07T11:40:27;18.10;94.90
21551;DHT22;10936;49.836;7.078;2022-12-07T11:43:01;18.00;94.60
21551;DHT22;10936;49.836;7.078;2022-12-07T11:45:32;18.10;94.60
21551;DHT22;10936;49.836;7.078;2022-12-07T11:48:06;18.10;94.60
21551;DHT22;10936;49.836;7.078;2022-12-07T11:50:51;18.10;94.60
21551;DHT22;10936;49.836;7.078;2022-12-07T11:53:22;18.10;94.60
21551;DHT22;10936;49.836;7.078;2022-12-07T11:56:16;18.00;94.60
21551;DHT22;10936;49.836;7.078;2022-12-07T12:06:35;18.10;94.60
21551;DHT22;10936;49.836;7.078;2022-12-07T12:14:19;18.10;94.60
21551;DHT22;10936;49.836;7.078;2022-12-07T12:19:42;18.00;94.60
21551;DHT22;10936;49.836;7.078;2022-12-07T12:22:17;18.10;94.60
21551;DHT22;10936;49.836;7.078;2022-12-07T12:24:46;18.10;94.60
21551;DHT22;10936;49.836;7.078;2022-12-07T12:27:26;18.00;94.60
21551;DHT22;10936;49.836;7.078;2022-12-07T12:29:57;18.00;94.60
21551;DHT22;10936;49.836;7.078;2022-12-07T12:37:55;18.00;94.60
21551;DHT22;10936;49.836;7.078;2022-12-07T12:42:54;18.00;94.60
21551;DHT22;10936;49.836;7.078;2022-12-07T12:45:31;18.00;94.60
21551;DHT22;10936;49.836;7.078;2022-12-07T12:48:27;18.00;94.60
21551;DHT22;10936;49.836;7.078;2022-12-07T12:54:05;18.00;94.60
21551;DHT22;10936;49.836;7.078;2022-12-07T12:59:23;18.00;94.60
21551;DHT22;10936;49.836;7.078;2022-12-07T13:01:51;18.00;94.60
21551;DHT22;10936;49.836;7.078;2022-12-07T13:04:25;18.00;94.60
21551;DHT22;10936;49.836;7.078;2022-12-07T13:06:52;18.00;94.60
21551;DHT22;10936;49.836;7.078;2022-12-07T13:09:21;18.00;94.60
21551;DHT22;10936;49.836;7.078;2022-12-07T13:11:48;18.00;94.60
21551;DHT22;10936;49.836;7.078;2022-12-07T13:17:03;18.00;94.60
21551;DHT22;10936;49.836;7.078;2022-12-07T13:22:46;18.00;94.60
21551;DHT22;10936;49.836;7.078;2022-12-07T13:27:54;18.00;94.60
21551;DHT22;10936;49.836;7.078;2022-12-07T13:30:22;18.00;94.60
21551;DHT22;10936;49.836;7.078;2022-12-07T13:32:55;18.00;94.60
21551;DHT22;10936;49.836;7.078;2022-12-07T13:35:34;18.00;94.60
21551;DHT22;10936;49.836;7.078;2022-12-07T13:38:27;18.00;94.60
21551;DHT22;10936;49.836;7.078;2022-12-07T13:41:15;18.00;94.60
21551;DHT22;10936;49.836;7.078;2022-12-07T13:43:50;18.00;94.60
21551;DHT22;10936;49.836;7.078;2022-12-07T13:46:21;18.00;94.60
21551;DHT22;10936;49.836;7.078;2022-12-07T13:48:50;18.00;94.60
21551;DHT22;10936;49.836;7.078;2022-12-07T13:51:24;18.00;94.60
21551;DHT22;10936;49.836;7.078;2022-12-07T13:54:01;18.00;94.60
21551;DHT22;10936;49.836;7.078;2022-12-07T13:56:32;18.00;94.60
21551;DHT22;10936;49.836;7.078;2022-12-07T13:58:58;18.00;94.60
21551;DHT22;10936;49.836;7.078;2022-12-07T14:01:24;18.00;94.60
21551;DHT22;10936;49.836;7.078;2022-12-07T14:03:50;18.00;94.60
21551;DHT22;10936;49.836;7.078;2022-12-07T14:06:23;18.00;94.60
21551;DHT22;10936;49.836;7.078;2022-12-07T14:09:17;18.10;94.60
21551;DHT22;10936;49.836;7.078;2022-12-07T14:11:43;18.10;94.70
21551;DHT22;10936;49.836;7.078;2022-12-07T14:14:35;18.00;94.70
21551;DHT22;10936;49.836;7.078;2022-12-07T14:17:12;18.10;94.80
21551;DHT22;10936;49.836;7.078;2022-12-07T14:19:43;18.10;94.70
21551;DHT22;10936;49.836;7.078;2022-12-07T14:22:34;18.10;94.70
21551;DHT22;10936;49.836;7.078;2022-12-07T14:25:23;18.10;94.70
21551;DHT22;10936;49.836;7.078;2022-12-07T14:27:55;18.10;94.70
21551;DHT22;10936;49.836;7.078;2022-12-07T14:30:23;18.10;94.80
21551;DHT22;10936;49.836;7.078;2022-12-07T14:32:59;18.10;94.80
21551;DHT22;10936;49.836;7.078;2022-12-07T14:35:26;18.10;94.80
21551;DHT22;10936;49.836;7.078;2022-12-07T14:37:51;18.10;94.80
21551;DHT22;10936;49.836;7.078;2022-12-07T14:40:22;18.10;94.90
21551;DHT22;10936;49.836;7.078;2022-12-07T14:42:52;18.10;94.90
21551;DHT22;10936;49.836;7.078;2022-12-07T14:45:21;18.10;94.90
21551;DHT22;10936;49.836;7.078;2022-12-07T14:47:47;18.10;94.90
21551;DHT22;10936;49.836;7.078;2022-12-07T14:50:15;18.10;94.90
21551;DHT22;10936;49.836;7.078;2022-12-07T14:52:42;18.10;95.00
21551;DHT22;10936;49.836;7.078;2022-12-07T14:55:29;18.10;95.00
21551;DHT22;10936;49.836;7.078;2022-12-07T14:57:55;18.10;95.00
21551;DHT22;10936;49.836;7.078;2022-12-07T15:00:23;18.10;95.00
21551;DHT22;10936;49.836;7.078;2022-12-07T15:02:49;18.10;95.00
21551;DHT22;10936;49.836;7.078;2022-12-07T15:05:16;18.10;95.00
21551;DHT22;10936;49.836;7.078;2022-12-07T15:07:41;18.10;95.10
21551;DHT22;10936;49.836;7.078;2022-12-07T15:10:19;18.10;95.10
21551;DHT22;10936;49.836;7.078;2022-12-07T15:12:45;18.10;95.10
21551;DHT22;10936;49.836;7.078;2022-12-07T15:15:11;18.10;95.10
21551;DHT22;10936;49.836;7.078;2022-12-07T15:17:36;18.10;95.20
21551;DHT22;10936;49.836;7.078;2022-12-07T15:20:03;18.20;95.60
21551;DHT22;10936;49.836;7.078;2022-12-07T15:22:29;18.20;95.30
21551;DHT22;10936;49.836;7.078;2022-12-07T15:27:24;18.20;95.30
21551;DHT22;10936;49.836;7.078;2022-12-07T15:29:50;18.10;95.30
21551;DHT22;10936;49.836;7.078;2022-12-07T15:32:15;18.10;95.30
21551;DHT22;10936;49.836;7.078;2022-12-07T15:34:41;18.20;95.30
21551;DHT22;10936;49.836;7.078;2022-12-07T15:37:07;18.20;95.30
21551;DHT22;10936;49.836;7.078;2022-12-07T15:39:33;18.20;95.40
21551;DHT22;10936;49.836;7.078;2022-12-07T15:41:58;18.20;95.70
21551;DHT22;10936;49.836;7.078;2022-12-07T15:44:24;18.20;95.30
21551;DHT22;10936;49.836;7.078;2022-12-07T15:47:08;18.20;95.40
21551;DHT22;10936;49.836;7.078;2022-12-07T15:49:34;18.20;95.30
21551;DHT22;10936;49.836;7.078;2022-12-07T15:51:59;18.20;95.30
21551;DHT22;10936;49.836;7.078;2022-12-07T15:54:27;18.20;95.30
21551;DHT22;10936;49.836;7.078;2022-12-07T15:56:54;18.20;95.30
21551;DHT22;10936;49.836;7.078;2022-12-07T15:59:20;18.20;95.30
21551;DHT22;10936;49.836;7.078;2022-12-07T16:01:45;18.20;95.30
21551;DHT22;10936;49.836;7.078;2022-12-07T16:04:11;18.20;95.30
21551;DHT22;10936;49.836;7.078;2022-12-07T16:06:37;18.20;95.30
21551;DHT22;10936;49.836;7.078;2022-12-07T16:09:03;18.30;95.30
21551;DHT22;10936;49.836;7.078;2022-12-07T16:11:29;18.20;95.30
21551;DHT22;10936;49.836;7.078;2022-12-07T16:13:54;18.30;95.30
21551;DHT22;10936;49.836;7.078;2022-12-07T16:16:21;18.30;95.30
21551;DHT22;10936;49.836;7.078;2022-12-07T16:18:48;18.30;95.30
21551;DHT22;10936;49.836;7.078;2022-12-07T16:21:14;18.30;95.30
21551;DHT22;10936;49.836;7.078;2022-12-07T16:23:40;18.30;95.30
21551;DHT22;10936;49.836;7.078;2022-12-07T16:26:08;18.30;95.30
21551;DHT22;10936;49.836;7.078;2022-12-07T16:28:34;18.30;95.30
21551;DHT22;10936;49.836;7.078;2022-12-07T16:31:02;18.30;95.30
21551;DHT22;10936;49.836;7.078;2022-12-07T16:33:28;18.30;95.20
21551;DHT22;10936;49.836;7.078;2022-12-07T16:35:53;18.30;95.20
21551;DHT22;10936;49.836;7.078;2022-12-07T16:38:19;18.40;95.10
21551;DHT22;10936;49.836;7.078;2022-12-07T16:40:44;18.40;95.10
21551;DHT22;10936;49.836;7.078;2022-12-07T16:43:13;18.40;95.10
21551;DHT22;10936;49.836;7.078;2022-12-07T16:45:38;18.40;95.00
21551;DHT22;10936;49.836;7.078;2022-12-07T16:48:04;18.40;95.00
21551;DHT22;10936;49.836;7.078;2022-12-07T16:50:30;18.40;95.00
21551;DHT22;10936;49.836;7.078;2022-12-07T16:52:55;18.40;95.00
21551;DHT22;10936;49.836;7.078;2022-12-07T16:55:21;18.40;95.00
21551;DHT22;10936;49.836;7.078;2022-12-07T16:57:46;18.40;95.00
21551;DHT22;10936;49.836;7.078;2022-12-07T17:00:12;18.40;95.10
21551;DHT22;10936;49.836;7.078;2022-12-07T17:02:38;18.40;95.20
21551;DHT22;10936;49.836;7.078;2022-12-07T17:05:04;18.40;95.20
21551;DHT22;10936;49.836;7.078;2022-12-07T17:07:29;18.40;95.20
21551;DHT22;10936;49.836;7.078;2022-12-07T17:09:55;18.40;95.20
21551;DHT22;10936;49.836;7.078;2022-12-07T17:12:20;18.40;95.20
21551;DHT22;10936;49.836;7.078;2022-12-07T17:14:46;18.40;95.20
21551;DHT22;10936;49.836;7.078;2022-12-07T17:17:30;18.40;95.20
21551;DHT22;10936;49.836;7.078;2022-12-07T17:19:56;18.40;95.20
21551;DHT22;10936;49.836;7.078;2022-12-07T17:22:21;18.40;95.20
21551;DHT22;10936;49.836;7.078;2022-12-07T17:24:47;18.40;95.20
21551;DHT22;10936;49.836;7.078;2022-12-07T17:27:12;18.40;95.20
21551;DHT22;10936;49.836;7.078;2022-12-07T17:29:38;18.40;95.20
21551;DHT22;10936;49.836;7.078;2022-12-07T17:32:03;18.40;95.10
21551;DHT22;10936;49.836;7.078;2022-12-07T17:34:30;18.50;95.10
21551;DHT22;10936;49.836;7.078;2022-12-07T17:36:55;18.50;95.20
21551;DHT22;10936;49.836;7.078;2022-12-07T17:39:21;18.50;95.10
21551;DHT22;10936;49.836;7.078;2022-12-07T17:41:47;18.50;95.10
21551;DHT22;10936;49.836;7.078;2022-12-07T17:44:31;18.50;95.20
21551;DHT22;10936;49.836;7.078;2022-12-07T17:46:57;18.50;95.10
21551;DHT22;10936;49.836;7.078;2022-12-07T17:49:24;18.50;95.10
21551;DHT22;10936;49.836;7.078;2022-12-07T17:51:49;18.50;95.10
21551;DHT22;10936;49.836;7.078;2022-12-07T17:54:34;18.50;95.20
21551;DHT22;10936;49.836;7.078;2022-12-07T17:56:59;18.40;95.10
21551;DHT22;10936;49.836;7.078;2022-12-07T17:59:25;18.50;95.20
21551;DHT22;10936;49.836;7.078;2022-12-07T18:01:50;18.50;95.10
21551;DHT22;10936;49.836;7.078;2022-12-07T18:04:16;18.50;95.10
21551;DHT22;10936;49.836;7.078;2022-12-07T18:06:42;18.50;95.10
21551;DHT22;10936;49.836;7.078;2022-12-07T18:09:08;18.50;95.10
21551;DHT22;10936;49.836;7.078;2022-12-07T18:11:34;18.50;95.10
21551;DHT22;10936;49.836;7.078;2022-12-07T18:14:00;18.50;95.10
21551;DHT22;10936;49.836;7.078;2022-12-07T18:16:28;18.50;95.10
21551;DHT22;10936;49.836;7.078;2022-12-07T18:18:54;18.50;95.10
21551;DHT22;10936;49.836;7.078;2022-12-07T18:21:25;18.50;95.10
21551;DHT22;10936;49.836;7.078;2022-12-07T18:23:53;18.60;95.10
21551;DHT22;10936;49.836;7.078;2022-12-07T18:26:21;18.50;95.00
21551;DHT22;10936;49.836;7.078;2022-12-07T18:28:47;18.50;94.90
21551;DHT22;10936;49.836;7.078;2022-12-07T18:31:13;18.50;94.90
21551;DHT22;10936;49.836;7.078;2022-12-07T18:33:40;18.50;94.90
21551;DHT22;10936;49.836;7.078;2022-12-07T18:36:06;18.50;94.90
21551;DHT22;10936;49.836;7.078;2022-12-07T18:38:32;18.50;94.90
21551;DHT22;10936;49.836;7.078;2022-12-07T18:40:57;18.50;94.90
21551;DHT22;10936;49.836;7.078;2022-12-07T18:43:23;18.50;94.90
21551;DHT22;10936;49.836;7.078;2022-12-07T18:45:52;18.50;94.90
21551;DHT22;10936;49.836;7.078;2022-12-07T18:48:20;18.40;94.90
21551;DHT22;10936;49.836;7.078;2022-12-07T18:50:47;18.40;94.90
21551;DHT22;10936;49.836;7.078;2022-12-07T18:53:13;18.40;94.90
21551;DHT22;10936;49.836;7.078;2022-12-07T18:55:39;18.50;94.90
21551;DHT22;10936;49.836;7.078;2022-12-07T18:58:05;18.50;94.90
21551;DHT22;10936;49.836;7.078;2022-12-07T19:00:32;18.40;94.90
21551;DHT22;10936;49.836;7.078;2022-12-07T19:02:59;18.40;94.90
21551;DHT22;10936;49.836;7.078;2022-12-07T19:05:26;18.40;94.90
21551;DHT22;10936;49.836;7.078;2022-12-07T19:07:51;18.40;94.90
21551;DHT22;10936;49.836;7.078;2022-12-07T19:10:18;18.40;94.90
21551;DHT22;10936;49.836;7.078;2022-12-07T19:12:44;18.40;94.90
21551;DHT22;10936;49.836;7.078;2022-12-07T19:15:11;18.40;94.90
21551;DHT22;10936;49.836;7.078;2022-12-07T19:17:37;18.40;94.90
21551;DHT22;10936;49.836;7.078;2022-12-07T19:20:04;18.30;94.90
21551;DHT22;10936;49.836;7.078;2022-12-07T19:22:30;18.30;94.90
21551;DHT22;10936;49.836;7.078;2022-12-07T19:24:56;18.30;95.00
21551;DHT22;10936;49.836;7.078;2022-12-07T19:27:22;18.30;95.00
21551;DHT22;10936;49.836;7.078;2022-12-07T19:29:49;18.30;95.00
21551;DHT22;10936;49.836;7.078;2022-12-07T19:32:16;18.30;94.90
21551;DHT22;10936;49.836;7.078;2022-12-07T19:34:43;18.30;95.00
21551;DHT22;10936;49.836;7.078;2022-12-07T19:37:10;18.30;95.00
21551;DHT22;10936;49.836;7.078;2022-12-07T19:39:37;18.30;95.00
21551;DHT22;10936;49.836;7.078;2022-12-07T19:42:03;18.30;95.00
21551;DHT22;10936;49.836;7.078;2022-12-07T19:44:29;18.20;95.00
21551;DHT22;10936;49.836;7.078;2022-12-07T19:46:57;18.20;94.90
21551;DHT22;10936;49.836;7.078;2022-12-07T19:49:25;18.20;94.90
21551;DHT22;10936;49.836;7.078;2022-12-07T19:51:53;18.20;94.90
21551;DHT22;10936;49.836;7.078;2022-12-07T19:54:21;18.20;94.90
21551;DHT22;10936;49.836;7.078;2022-12-07T19:56:49;18.20;94.90
21551;DHT22;10936;49.836;7.078;2022-12-07T19:59:15;18.20;95.00
21551;DHT22;10936;49.836;7.078;2022-12-07T20:01:42;18.20;95.00
21551;DHT22;10936;49.836;7.078;2022-12-07T20:04:11;18.20;95.00
21551;DHT22;10936;49.836;7.078;2022-12-07T20:06:37;18.20;95.00
21551;DHT22;10936;49.836;7.078;2022-12-07T20:09:03;18.20;95.00
21551;DHT22;10936;49.836;7.078;2022-12-07T20:11:29;18.20;95.00
21551;DHT22;10936;49.836;7.078;2022-12-07T20:14:13;18.10;95.00
21551;DHT22;10936;49.836;7.078;2022-12-07T20:16:39;18.20;95.00
21551;DHT22;10936;49.836;7.078;2022-12-07T20:19:07;18.10;95.00
21551;DHT22;10936;49.836;7.078;2022-12-07T20:21:33;18.10;95.00
21551;DHT22;10936;49.836;7.078;2022-12-07T20:24:00;18.10;95.00
21551;DHT22;10936;49.836;7.078;2022-12-07T20:26:26;18.10;95.00
21551;DHT22;10936;49.836;7.078;2022-12-07T20:28:51;18.10;95.00
21551;DHT22;10936;49.836;7.078;2022-12-07T20:31:17;18.10;95.00
21551;DHT22;10936;49.836;7.078;2022-12-07T20:33:44;18.10;95.00
21551;DHT22;10936;49.836;7.078;2022-12-07T20:36:16;18.10;95.00
21551;DHT22;10936;49.836;7.078;2022-12-07T20:38:43;18.20;95.00
21551;DHT22;10936;49.836;7.078;2022-12-07T20:41:10;18.20;95.00
21551;DHT22;10936;49.836;7.078;2022-12-07T20:43:56;18.10;95.30
21551;DHT22;10936;49.836;7.078;2022-12-07T20:46:22;18.10;95.00
21551;DHT22;10936;49.836;7.078;2022-12-07T20:48:47;18.10;95.00
21551;DHT22;10936;49.836;7.078;2022-12-07T20:51:13;18.10;95.00
21551;DHT22;10936;49.836;7.078;2022-12-07T20:53:38;18.10;95.00
21551;DHT22;10936;49.836;7.078;2022-12-07T20:56:04;18.10;95.00
21551;DHT22;10936;49.836;7.078;2022-12-07T20:58:30;18.10;95.00
21551;DHT22;10936;49.836;7.078;2022-12-07T21:01:02;18.10;95.00
21551;DHT22;10936;49.836;7.078;2022-12-07T21:03:28;18.10;95.30
21551;DHT22;10936;49.836;7.078;2022-12-07T21:05:53;18.10;95.00
21551;DHT22;10936;49.836;7.078;2022-12-07T21:08:19;18.10;95.00
21551;DHT22;10936;49.836;7.078;2022-12-07T21:10:45;18.10;95.00
21551;DHT22;10936;49.836;7.078;2022-12-07T21:13:11;18.10;95.00
21551;DHT22;10936;49.836;7.078;2022-12-07T21:15:39;18.10;95.00
21551;DHT22;10936;49.836;7.078;2022-12-07T21:18:05;18.10;95.00
21551;DHT22;10936;49.836;7.078;2022-12-07T21:20:31;18.10;95.00
21551;DHT22;10936;49.836;7.078;2022-12-07T21:22:57;18.10;95.00
21551;DHT22;10936;49.836;7.078;2022-12-07T21:25:23;18.10;94.90
21551;DHT22;10936;49.836;7.078;2022-12-07T21:27:48;18.10;95.00
21551;DHT22;10936;49.836;7.078;2022-12-07T21:30:14;18.10;95.00
21551;DHT22;10936;49.836;7.078;2022-12-07T21:32:39;18.10;95.00
21551;DHT22;10936;49.836;7.078;2022-12-07T21:35:05;18.10;95.00
21551;DHT22;10936;49.836;7.078;2022-12-07T21:37:31;18.10;94.90
21551;DHT22;10936;49.836;7.078;2022-12-07T21:39:56;18.10;94.90
21551;DHT22;10936;49.836;7.078;2022-12-07T21:42:22;18.10;94.90
21551;DHT22;10936;49.836;7.078;2022-12-07T21:44:47;18.10;94.90
21551;DHT22;10936;49.836;7.078;2022-12-07T21:47:13;18.00;94.90
21551;DHT22;10936;49.836;7.078;2022-12-07T21:49:38;18.10;95.00
21551;DHT22;10936;49.836;7.078;2022-12-07T21:52:04;18.00;94.90
21551;DHT22;10936;49.836;7.078;2022-12-07T21:54:30;18.10;95.00
21551;DHT22;10936;49.836;7.078;2022-12-07T21:56:56;18.10;95.00
21551;DHT22;10936;49.836;7.078;2022-12-07T21:59:22;18.10;95.00
21551;DHT22;10936;49.836;7.078;2022-12-07T22:01:48;18.10;95.00
21551;DHT22;10936;49.836;7.078;2022-12-07T22:04:19;18.00;94.90
21551;DHT22;10936;49.836;7.078;2022-12-07T22:06:47;18.10;94.90
21551;DHT22;10936;49.836;7.078;2022-12-07T22:09:13;18.10;94.90
21551;DHT22;10936;49.836;7.078;2022-12-07T22:11:39;18.10;94.90
21551;DHT22;10936;49.836;7.078;2022-12-07T22:14:05;18.10;94.90
21551;DHT22;10936;49.836;7.078;2022-12-07T22:16:51;18.10;94.90
21551;DHT22;10936;49.836;7.078;2022-12-07T22:19:17;18.10;94.90
21551;DHT22;10936;49.836;7.078;2022-12-07T22:21:42;18.10;94.90
21551;DHT22;10936;49.836;7.078;2022-12-07T22:24:09;18.10;94.90
21551;DHT22;10936;49.836;7.078;2022-12-07T22:26:35;18.10;94.90
21551;DHT22;10936;49.836;7.078;2022-12-07T22:29:01;18.10;94.90
